Time;durP1;ratioP1;P1;durP2;ratioP2;P2;SDS_P1;SDS_P2;PMS_P1;PMS_P2;Temp;Humidity;BMP_temperature;BMP_pressure;BME280_temperature;BME280_humidity;BME280_pressure;Samples;Min_cycle;Max_cycle;Signal;HPM_P1;HPM_P2
2022/12/09 00:01:47;;;;;;;1.45;0.65;;;17.10;98.00;;;;;;7404260;19;19914;-44
2022/12/09 00:04:16;;;;;;;1.42;0.68;;;17.10;98.00;;;;;;7404571;19;19919;-46
2022/12/09 00:06:48;;;;;;;0.80;0.10;;;17.10;98.00;;;;;;7406182;19;20351;-44
2022/12/09 00:09:17;;;;;;;1.23;0.10;;;17.00;98.00;;;;;;7404897;19;20230;-44
2022/12/09 00:11:46;;;;;;;1.33;0.70;;;17.00;98.00;;;;;;7405733;19;19931;-45
2022/12/09 00:14:15;;;;;;;1.10;0.20;;;17.00;98.00;;;;;;7403736;19;19915;-44
2022/12/09 00:16:44;;;;;;;1.55;0.70;;;17.00;98.00;;;;;;7405850;19;19946;-44
2022/12/09 00:19:13;;;;;;;1.58;0.60;;;17.00;98.10;;;;;;7404611;19;19919;-44
2022/12/09 00:21:42;;;;;;;1.17;0.30;;;17.00;98.10;;;;;;7403018;19;19922;-44
2022/12/09 00:24:15;;;;;;;1.63;0.20;;;17.00;98.10;;;;;;7404065;19;19919;-45
2022/12/09 00:26:44;;;;;;;0.98;0.55;;;16.90;98.10;;;;;;7397316;19;19918;-43
2022/12/09 00:29:14;;;;;;;1.33;0.65;;;16.90;98.10;;;;;;7407809;19;19937;-44
2022/12/09 00:31:43;;;;;;;1.00;0.28;;;16.90;98.10;;;;;;7404189;19;20275;-44
2022/12/09 00:34:14;;;;;;;1.25;0.70;;;16.90;98.10;;;;;;7406621;19;19922;-47
2022/12/09 00:36:43;;;;;;;0.57;0.15;;;16.90;98.10;;;;;;7405560;19;19918;-48
2022/12/09 00:39:15;;;;;;;1.02;0.10;;;16.90;98.10;;;;;;7402935;19;19943;-45
2022/12/09 00:41:44;;;;;;;0.80;0.20;;;16.80;98.10;;;;;;7401564;19;19939;-48
2022/12/09 00:44:13;;;;;;;1.10;0.57;;;16.80;98.00;;;;;;7396228;19;20345;-45
2022/12/09 00:46:42;;;;;;;2.00;0.60;;;16.80;98.10;;;;;;7403927;19;19918;-45
2022/12/09 00:49:12;;;;;;;1.15;0.25;;;16.80;98.10;;;;;;7404233;19;19957;-47
2022/12/09 00:51:41;;;;;;;1.17;0.40;;;16.80;98.30;;;;;;7407115;19;19925;-44
2022/12/09 00:54:10;;;;;;;0.98;0.50;;;16.80;98.10;;;;;;7401934;19;19974;-44
2022/12/09 00:56:41;;;;;;;1.08;0.13;;;16.70;98.10;;;;;;7402191;19;20308;-44
2022/12/09 00:59:10;;;;;;;1.60;0.57;;;16.70;98.10;;;;;;7402615;19;19923;-47
2022/12/09 01:01:39;;;;;;;1.33;0.20;;;16.70;98.10;;;;;;7404238;19;19926;-44
2022/12/09 01:04:09;;;;;;;1.20;0.55;;;16.70;98.10;;;;;;7403016;19;19914;-43
2022/12/09 01:06:40;;;;;;;1.00;0.40;;;16.70;98.10;;;;;;7403976;19;19914;-46
2022/12/09 01:09:09;;;;;;;0.85;0.40;;;16.70;98.20;;;;;;7406093;19;19943;-48
2022/12/09 01:11:42;;;;;;;1.20;0.80;;;16.70;98.20;;;;;;7404059;19;19922;-44
2022/12/09 01:14:11;;;;;;;1.13;0.20;;;16.70;98.10;;;;;;7402476;19;20025;-45
2022/12/09 01:16:40;;;;;;;0.90;0.22;;;16.60;98.10;;;;;;7402534;19;20340;-48
2022/12/09 01:19:12;;;;;;;0.60;0.20;;;16.70;98.20;;;;;;7402707;19;19919;-45
2022/12/09 01:21:41;;;;;;;1.20;0.50;;;16.60;98.10;;;;;;7401312;19;20552;-44
2022/12/09 01:24:11;;;;;;;1.08;0.43;;;16.60;98.10;;;;;;7394447;19;19928;-44
2022/12/09 01:26:44;;;;;;;0.98;0.50;;;16.60;98.10;;;;;;7403701;19;19922;-47
2022/12/09 01:29:13;;;;;;;1.10;0.60;;;16.60;98.10;;;;;;7409244;19;19918;-44
2022/12/09 01:31:42;;;;;;;0.82;0.13;;;16.60;98.10;;;;;;7413502;19;20286;-43
2022/12/09 01:34:12;;;;;;;0.80;0.20;;;16.60;98.10;;;;;;7408735;19;19918;-43
2022/12/09 01:36:41;;;;;;;0.93;0.22;;;16.60;98.10;;;;;;7407707;19;19926;-44
2022/12/09 01:39:11;;;;;;;0.98;0.60;;;16.60;98.10;;;;;;7408595;19;19929;-43
2022/12/09 01:41:40;;;;;;;0.82;0.10;;;16.50;98.10;;;;;;7404260;19;19923;-44
2022/12/09 01:44:18;;;;;;;1.13;0.20;;;16.50;98.10;;;;;;7410191;19;19927;-45
2022/12/09 01:46:48;;;;;;;0.80;0.20;;;16.50;98.10;;;;;;7409922;19;19918;-44
2022/12/09 01:49:18;;;;;;;;;;;16.50;98.10;;;;;;7410293;19;20352;-45
2022/12/09 01:51:59;;;;;;;0.80;0.10;;;16.50;98.10;;;;;;7411206;19;19936;-44
2022/12/09 01:54:29;;;;;;;0.90;0.50;;;16.50;98.10;;;;;;7408883;19;19930;-45
2022/12/09 01:56:58;;;;;;;0.52;0.20;;;16.50;98.10;;;;;;7401221;19;19950;-46
2022/12/09 01:59:30;;;;;;;1.20;0.50;;;16.50;98.10;;;;;;7411399;19;19918;-43
2022/12/09 02:02:07;;;;;;;0.80;0.10;;;16.50;98.10;;;;;;7405922;19;19911;-43
2022/12/09 02:04:44;;;;;;;0.98;0.32;;;16.50;98.10;;;;;;7411884;19;20314;-42
2022/12/09 02:07:14;;;;;;;0.68;0.10;;;16.50;98.10;;;;;;7407791;19;19914;-43
2022/12/09 02:09:44;;;;;;;1.23;0.20;;;16.50;98.10;;;;;;7408524;19;20349;-44
2022/12/09 02:12:16;;;;;;;0.88;0.20;;;16.50;98.40;;;;;;7402726;19;19926;-44
2022/12/09 02:14:57;;;;;;;0.93;0.10;;;16.50;98.10;;;;;;7411211;19;19922;-43
2022/12/09 02:17:31;;;;;;;1.48;0.10;;;16.40;98.10;;;;;;7408958;19;19939;-45
2022/12/09 02:20:08;;;;;;;1.23;0.60;;;16.40;98.10;;;;;;7411991;19;19978;-44
2022/12/09 02:22:42;;;;;;;1.58;0.50;;;16.40;98.10;;;;;;7405508;19;19935;-44
2022/12/09 02:25:24;;;;;;;0.80;0.20;;;16.40;98.10;;;;;;7408133;19;19918;-44
2022/12/09 02:28:12;;;;;;;1.70;0.50;;;16.40;98.10;;;;;;7407166;19;20009;-45
2022/12/09 02:30:54;;;;;;;1.08;0.47;;;16.40;98.10;;;;;;7409296;19;19927;-45
2022/12/09 02:33:37;;;;;;;1.40;0.52;;;16.40;98.10;;;;;;7409844;19;19992;-43
2022/12/09 02:36:13;;;;;;;1.23;0.20;;;16.40;98.10;;;;;;7406292;19;19939;-43
2022/12/09 02:38:43;;;;;;;;;;;16.40;98.10;;;;;;7408187;19;19915;-43
2022/12/09 02:41:16;;;;;;;1.13;0.60;;;16.40;98.10;;;;;;7408905;19;19934;-43
2022/12/09 02:43:48;;;;;;;0.82;0.13;;;16.40;98.10;;;;;;7406405;19;19949;-43
2022/12/09 02:46:20;;;;;;;0.93;0.20;;;16.30;98.10;;;;;;7407096;19;19923;-44
2022/12/09 02:48:53;;;;;;;1.17;0.70;;;16.30;98.10;;;;;;7406570;19;19914;-43
2022/12/09 02:51:28;;;;;;;0.95;0.10;;;16.30;98.10;;;;;;7406820;19;19923;-43
2022/12/09 02:54:02;;;;;;;0.95;0.20;;;16.30;98.10;;;;;;7410848;19;19942;-44
2022/12/09 02:56:31;;;;;;;1.42;0.15;;;16.30;98.10;;;;;;7409207;19;19952;-43
2022/12/09 02:59:00;;;;;;;1.08;0.20;;;16.30;98.00;;;;;;7406689;19;20588;-44
2022/12/09 03:01:42;;;;;;;1.15;0.20;;;16.30;98.10;;;;;;7406043;19;19928;-42
2022/12/09 03:04:15;;;;;;;1.40;0.45;;;16.30;98.10;;;;;;7406055;19;19966;-44
2022/12/09 03:06:53;;;;;;;1.42;0.20;;;16.30;98.00;;;;;;7399398;19;19956;-43
2022/12/09 03:09:25;;;;;;;2.67;1.08;;;16.30;98.30;;;;;;7407416;19;19970;-43
2022/12/09 03:12:00;;;;;;;1.23;0.68;;;16.30;98.00;;;;;;7407403;19;19919;-45
2022/12/09 03:14:35;;;;;;;1.20;0.10;;;16.30;98.00;;;;;;7410549;19;19933;-42
2022/12/09 03:17:11;;;;;;;1.15;0.47;;;16.30;98.10;;;;;;7406488;19;19914;-45
2022/12/09 03:19:47;;;;;;;1.10;0.30;;;16.20;98.10;;;;;;7406364;19;19919;-44
2022/12/09 03:22:21;;;;;;;1.10;0.20;;;16.20;98.10;;;;;;7399523;19;19922;-43
2022/12/09 03:24:54;;;;;;;1.40;0.13;;;16.20;98.10;;;;;;7405129;19;19922;-43
2022/12/09 03:27:27;;;;;;;0.95;0.10;;;16.20;98.00;;;;;;7405131;19;19968;-43
2022/12/09 03:29:59;;;;;;;1.40;0.20;;;16.20;98.00;;;;;;7405739;19;19936;-42
2022/12/09 03:32:30;;;;;;;1.17;0.50;;;16.20;98.00;;;;;;7406025;19;19911;-43
2022/12/09 03:35:04;;;;;;;0.82;0.13;;;16.20;98.10;;;;;;7405541;19;19931;-42
2022/12/09 03:37:37;;;;;;;1.70;0.82;;;16.20;98.10;;;;;;7402764;19;19918;-43
2022/12/09 03:40:10;;;;;;;0.77;0.10;;;16.20;98.10;;;;;;7406798;19;19914;-43
2022/12/09 03:42:44;;;;;;;1.52;0.20;;;16.20;98.00;;;;;;7403987;19;19919;-44
2022/12/09 03:45:15;;;;;;;2.17;0.60;;;16.20;98.00;;;;;;7405664;19;19915;-43
2022/12/09 03:47:44;;;;;;;1.08;0.10;;;16.20;98.10;;;;;;7404840;19;19923;-44
2022/12/09 03:50:14;;;;;;;1.33;0.47;;;16.20;98.00;;;;;;7407390;19;19926;-43
2022/12/09 03:52:49;;;;;;;0.70;0.13;;;16.20;98.00;;;;;;7399222;19;20359;-44
2022/12/09 03:55:25;;;;;;;1.42;0.22;;;16.20;98.10;;;;;;7404051;19;20299;-43
2022/12/09 03:57:58;;;;;;;;;;;16.10;98.00;;;;;;7409112;19;19925;-43
2022/12/09 04:00:27;;;;;;;1.30;0.20;;;16.10;98.00;;;;;;7407196;19;20349;-43
2022/12/09 04:02:56;;;;;;;0.70;0.40;;;16.10;98.00;;;;;;7402873;19;19974;-42
2022/12/09 04:05:25;;;;;;;0.90;0.25;;;16.10;98.00;;;;;;7405462;19;20431;-42
2022/12/09 04:07:57;;;;;;;1.02;0.40;;;16.10;98.00;;;;;;7405517;19;19919;-44
2022/12/09 04:10:26;;;;;;;1.23;0.40;;;16.10;98.00;;;;;;7408232;19;19994;-42
2022/12/09 04:12:55;;;;;;;1.30;0.50;;;16.10;98.00;;;;;;7400618;19;19926;-43
2022/12/09 04:15:24;;;;;;;1.13;0.40;;;16.10;98.00;;;;;;7407422;19;19925;-45
2022/12/09 04:17:53;;;;;;;1.15;0.40;;;16.10;98.00;;;;;;7404426;19;19915;-43
2022/12/09 04:20:22;;;;;;;1.25;0.40;;;16.10;98.00;;;;;;7404093;19;20003;-45
2022/12/09 04:22:51;;;;;;;1.00;0.25;;;16.10;98.00;;;;;;7402162;19;20378;-43
2022/12/09 04:25:22;;;;;;;0.73;0.35;;;16.10;98.00;;;;;;7404319;19;19928;-42
2022/12/09 04:27:52;;;;;;;1.00;0.20;;;16.00;98.00;;;;;;7398095;19;19918;-43
2022/12/09 04:30:22;;;;;;;0.82;0.22;;;16.00;98.20;;;;;;7405478;19;19931;-43
2022/12/09 04:32:51;;;;;;;1.55;0.30;;;16.00;98.00;;;;;;7406600;19;19926;-44
2022/12/09 04:35:21;;;;;;;1.20;0.57;;;16.00;98.00;;;;;;7407115;19;19934;-45
2022/12/09 04:38:00;;;;;;;0.77;0.30;;;16.00;98.00;;;;;;7401717;19;19939;-42
2022/12/09 04:40:32;;;;;;;1.00;0.22;;;16.00;98.00;;;;;;7404210;19;20266;-42
2022/12/09 04:43:01;;;;;;;1.10;0.22;;;16.00;98.00;;;;;;7402919;19;19914;-43
2022/12/09 04:45:30;;;;;;;1.25;0.60;;;16.00;98.00;;;;;;7408443;19;19970;-42
2022/12/09 04:48:00;;;;;;;1.58;0.75;;;16.00;98.00;;;;;;7407986;19;19982;-43
2022/12/09 04:50:29;;;;;;;1.08;0.10;;;15.90;98.20;;;;;;7403836;19;19982;-44
2022/12/09 04:52:58;;;;;;;0.80;0.22;;;16.00;98.00;;;;;;7405204;19;19936;-45
2022/12/09 04:55:27;;;;;;;0.73;0.25;;;15.90;98.00;;;;;;7405063;19;20009;-43
2022/12/09 04:57:59;;;;;;;0.47;0.05;;;15.90;98.00;;;;;;7406182;19;19958;-42
2022/12/09 05:00:28;;;;;;;1.08;0.50;;;15.90;98.00;;;;;;7404785;19;19981;-43
2022/12/09 05:02:57;;;;;;;0.73;0.20;;;15.90;98.00;;;;;;7404614;19;20347;-44
2022/12/09 05:05:26;;;;;;;0.93;0.10;;;15.90;98.00;;;;;;7403631;19;19914;-42
2022/12/09 05:07:55;;;;;;;0.80;0.30;;;15.90;98.00;;;;;;7396439;19;19911;-42
2022/12/09 05:10:25;;;;;;;0.88;0.20;;;15.90;97.90;;;;;;7404200;19;19948;-44
2022/12/09 05:12:54;;;;;;;1.13;0.52;;;15.90;98.00;;;;;;7402643;19;19982;-42
2022/12/09 05:15:26;;;;;;;0.70;0.40;;;15.90;98.00;;;;;;7403444;19;19934;-45
2022/12/09 05:17:56;;;;;;;0.98;0.65;;;15.80;97.90;;;;;;7405705;19;20317;-43
2022/12/09 05:20:28;;;;;;;1.48;0.30;;;15.80;98.00;;;;;;7402433;19;20364;-42
2022/12/09 05:22:57;;;;;;;0.80;0.28;;;15.80;98.00;;;;;;7401225;19;19922;-44
2022/12/09 05:25:26;;;;;;;2.10;0.90;;;15.80;98.00;;;;;;7396944;19;20000;-45
2022/12/09 05:28:02;;;;;;;1.05;0.20;;;15.80;98.00;;;;;;7402272;19;19922;-42
2022/12/09 05:30:34;;;;;;;1.20;0.40;;;15.80;98.00;;;;;;7402453;19;19970;-44
2022/12/09 05:33:02;;;;;;;0.95;0.30;;;15.80;98.00;;;;;;7401725;19;19919;-45
2022/12/09 05:35:31;;;;;;;0.90;0.10;;;15.80;98.20;;;;;;7402486;19;19933;-45
2022/12/09 05:38:00;;;;;;;1.58;0.55;;;15.80;98.20;;;;;;7399053;19;19915;-43
2022/12/09 05:40:29;;;;;;;0.55;0.10;;;15.80;98.00;;;;;;7403265;19;19930;-42
2022/12/09 05:42:58;;;;;;;0.60;0.10;;;15.80;98.00;;;;;;7402750;19;19939;-42
2022/12/09 05:45:27;;;;;;;0.82;0.40;;;15.70;98.00;;;;;;7401878;19;19943;-43
2022/12/09 05:47:59;;;;;;;0.57;0.13;;;15.70;98.00;;;;;;7402521;19;20291;-43
2022/12/09 05:50:28;;;;;;;0.50;0.10;;;15.70;98.00;;;;;;7400507;19;20382;-42
2022/12/09 05:52:57;;;;;;;0.90;0.20;;;15.70;98.00;;;;;;7403959;19;19923;-45
2022/12/09 05:55:26;;;;;;;0.98;0.20;;;15.70;98.00;;;;;;7400834;19;19922;-47
2022/12/09 05:57:55;;;;;;;0.75;0.32;;;15.70;98.00;;;;;;7401964;19;19922;-45
2022/12/09 06:00:27;;;;;;;1.00;0.40;;;15.70;98.00;;;;;;7404092;19;19919;-43
2022/12/09 06:02:59;;;;;;;0.70;0.10;;;15.70;98.00;;;;;;7400499;19;19922;-43
2022/12/09 06:05:28;;;;;;;0.60;0.10;;;15.70;98.00;;;;;;7394067;19;19922;-44
2022/12/09 06:08:00;;;;;;;1.00;0.43;;;15.70;98.00;;;;;;7398343;19;19925;-45
2022/12/09 06:10:29;;;;;;;;;;;15.70;98.00;;;;;;7406875;19;19925;-42
2022/12/09 06:12:58;;;;;;;0.68;0.35;;;15.70;98.00;;;;;;7402534;19;19915;-44
2022/12/09 06:15:27;;;;;;;0.82;0.35;;;15.60;97.90;;;;;;7406855;19;19926;-43
2022/12/09 06:18:01;;;;;;;0.80;0.40;;;15.60;97.90;;;;;;7409818;19;19922;-43
2022/12/09 06:20:30;;;;;;;1.75;0.60;;;15.60;98.20;;;;;;7410454;19;19926;-42
2022/12/09 06:22:59;;;;;;;1.55;0.77;;;15.60;98.00;;;;;;7397917;19;19922;-43
2022/12/09 06:25:28;;;;;;;1.13;0.10;;;15.60;98.00;;;;;;7409823;19;19926;-47
2022/12/09 06:27:57;;;;;;;0.40;0.00;;;15.60;98.00;;;;;;7406649;19;19911;-46
2022/12/09 06:30:26;;;;;;;0.90;0.10;;;15.60;98.00;;;;;;7410867;19;19926;-44
2022/12/09 06:32:55;;;;;;;1.02;0.10;;;15.60;98.10;;;;;;7407350;19;19919;-43
2022/12/09 06:35:27;;;;;;;0.73;0.10;;;15.60;98.00;;;;;;7397881;19;20078;-42
2022/12/09 06:37:56;;;;;;;0.88;0.10;;;15.60;98.00;;;;;;7400710;19;20229;-42
2022/12/09 06:40:25;;;;;;;2.05;0.40;;;15.70;98.10;;;;;;7406313;19;19925;-42
2022/12/09 06:42:54;;;;;;;1.75;0.43;;;15.70;98.10;;;;;;7407399;19;19926;-43
2022/12/09 06:45:23;;;;;;;1.00;0.40;;;15.70;98.10;;;;;;7409087;19;19974;-42
2022/12/09 06:47:52;;;;;;;0.57;0.10;;;15.70;98.30;;;;;;7404988;19;19942;-43
2022/12/09 06:50:22;;;;;;;0.90;0.40;;;15.70;98.00;;;;;;7411208;19;19914;-42
2022/12/09 06:52:54;;;;;;;0.52;0.25;;;15.60;98.00;;;;;;7396129;19;20289;-43
2022/12/09 06:55:28;;;;;;;0.70;0.10;;;15.60;98.10;;;;;;7406081;19;20316;-42
2022/12/09 06:58:01;;;;;;;0.85;0.30;;;15.60;98.10;;;;;;7406356;19;20282;-43
2022/12/09 07:00:30;;;;;;;3.55;0.15;;;15.60;98.30;;;;;;7399396;19;19991;-42
2022/12/09 07:02:59;;;;;;;1.23;0.05;;;15.60;98.40;;;;;;7409377;19;19962;-42
2022/12/09 07:05:28;;;;;;;1.63;0.60;;;15.70;98.50;;;;;;7409752;19;19919;-41
2022/12/09 07:08:02;;;;;;;1.77;0.50;;;15.70;98.50;;;;;;7405687;19;20473;-44
2022/12/09 07:10:31;;;;;;;0.68;0.00;;;15.70;98.50;;;;;;7408986;19;19990;-42
2022/12/09 07:13:00;;;;;;;0.60;0.00;;;15.70;98.50;;;;;;7405789;19;19930;-41
2022/12/09 07:15:29;;;;;;;1.08;0.47;;;15.70;98.60;;;;;;7408146;19;19923;-42
2022/12/09 07:17:58;;;;;;;0.90;0.10;;;15.70;98.60;;;;;;7402187;19;19922;-40
2022/12/09 07:20:35;;;;;;;1.30;0.40;;;15.70;98.60;;;;;;7405075;19;19918;-42
2022/12/09 07:23:07;;;;;;;1.67;0.40;;;15.70;98.50;;;;;;7403048;19;19923;-41
2022/12/09 07:25:36;;;;;;;1.13;0.40;;;15.60;98.50;;;;;;7402720;19;19910;-42
2022/12/09 07:28:05;;;;;;;1.40;0.30;;;15.60;98.50;;;;;;7406892;19;19982;-41
2022/12/09 07:30:34;;;;;;;1.33;0.50;;;15.60;98.40;;;;;;7405771;19;19922;-40
2022/12/09 07:33:03;;;;;;;0.88;0.17;;;15.60;98.40;;;;;;7405236;19;19956;-41
2022/12/09 07:35:32;;;;;;;1.08;0.10;;;15.60;98.40;;;;;;7406239;19;20292;-41
2022/12/09 07:38:24;;;;;;;1.42;0.20;;;15.50;98.40;;;;;;7406963;19;19915;-43
2022/12/09 07:41:16;;;;;;;2.75;0.98;;;15.50;98.40;;;;;;7403622;19;19944;-41
2022/12/09 07:43:46;;;;;;;1.40;0.60;;;15.50;98.30;;;;;;7403843;19;19926;-41
2022/12/09 07:46:16;;;;;;;1.30;0.45;;;15.50;98.30;;;;;;7406949;19;20033;-41
2022/12/09 07:48:45;;;;;;;1.60;0.38;;;15.50;98.30;;;;;;7404960;19;19922;-42
2022/12/09 07:51:14;;;;;;;0.57;0.13;;;15.50;98.30;;;;;;7405534;19;20345;-41
2022/12/09 07:53:46;;;;;;;2.75;0.20;;;15.50;98.30;;;;;;7404345;19;20272;-42
2022/12/09 07:56:17;;;;;;;1.88;0.45;;;15.50;98.30;;;;;;7408906;19;19920;-41
2022/12/09 07:58:50;;;;;;;2.33;0.10;;;15.50;98.30;;;;;;7402916;19;19986;-42
2022/12/09 08:01:20;;;;;;;0.52;0.10;;;15.50;98.30;;;;;;7395685;19;19930;-42
2022/12/09 08:03:51;;;;;;;1.65;0.10;;;15.40;98.30;;;;;;7407540;19;19987;-41
2022/12/09 08:06:22;;;;;;;0.90;0.32;;;15.50;98.30;;;;;;7406763;19;20087;-42
2022/12/09 08:08:59;;;;;;;1.30;0.20;;;15.40;98.30;;;;;;7407932;19;19921;-40
2022/12/09 08:11:33;;;;;;;0.90;0.40;;;15.40;98.30;;;;;;7404978;19;19982;-40
2022/12/09 08:14:04;;;;;;;2.15;0.40;;;15.40;98.30;;;;;;7405057;19;19926;-43
2022/12/09 08:16:33;;;;;;;0.68;0.03;;;15.40;98.20;;;;;;7405183;19;19918;-42
2022/12/09 08:19:02;;;;;;;2.42;0.30;;;15.40;98.30;;;;;;7398618;19;19926;-42
2022/12/09 08:21:33;;;;;;;0.90;0.10;;;15.40;98.20;;;;;;7408034;19;19926;-43
2022/12/09 08:24:07;;;;;;;1.10;0.50;;;15.40;98.20;;;;;;7402740;19;20010;-42
2022/12/09 08:26:37;;;;;;;1.45;0.47;;;15.40;98.20;;;;;;7404266;19;19922;-42
2022/12/09 08:29:09;;;;;;;0.88;0.20;;;15.40;98.20;;;;;;7403242;19;19935;-42
2022/12/09 08:31:38;;;;;;;1.02;0.50;;;15.40;98.20;;;;;;7403779;19;20021;-42
2022/12/09 08:34:07;;;;;;;1.10;0.15;;;15.40;98.20;;;;;;7403736;19;19915;-42
2022/12/09 10:39:38;;;;;;;1.77;0.70;;;15.80;98.00;;;;;;7398136;19;19922;-43
2022/12/09 10:45:05;;;;;;;0.95;0.13;;;15.80;98.00;;;;;;7406553;19;19939;-42
2022/12/09 10:47:38;;;;;;;1.75;0.30;;;15.80;97.90;;;;;;7404569;19;19998;-43
2022/12/09 10:50:09;;;;;;;1.50;0.43;;;15.80;98.00;;;;;;7406706;19;20322;-43
2022/12/09 10:52:46;;;;;;;0.93;0.13;;;15.80;97.90;;;;;;7406710;19;19919;-42
2022/12/09 10:55:35;;;;;;;1.10;0.43;;;15.80;97.90;;;;;;7404595;19;20486;-42
2022/12/09 10:58:18;;;;;;;1.83;0.40;;;15.80;97.90;;;;;;7407692;19;20303;-43
2022/12/09 11:01:01;;;;;;;1.38;0.30;;;15.80;98.20;;;;;;7406007;19;20344;-44
2022/12/09 11:03:33;;;;;;;1.30;0.68;;;15.80;97.90;;;;;;7406892;19;19918;-45
2022/12/09 11:06:06;;;;;;;1.13;0.20;;;15.80;97.90;;;;;;7407455;19;19947;-42
2022/12/09 11:08:43;;;;;;;3.00;0.68;;;15.80;97.90;;;;;;7405844;19;19943;-43
2022/12/09 11:11:15;;;;;;;2.08;0.77;;;15.80;98.20;;;;;;7405905;19;19919;-42
2022/12/09 11:13:45;;;;;;;0.90;0.10;;;15.80;97.90;;;;;;7399879;19;19914;-42
2022/12/09 11:16:16;;;;;;;1.58;0.35;;;15.80;97.90;;;;;;7409549;19;20304;-43
2022/12/09 11:18:48;;;;;;;1.38;0.52;;;15.80;97.90;;;;;;7405516;19;19940;-43
2022/12/09 11:21:35;;;;;;;1.65;0.85;;;15.80;97.90;;;;;;7408744;19;20408;-42
2022/12/09 11:24:05;;;;;;;1.42;0.70;;;15.80;97.90;;;;;;7404498;19;20396;-43
2022/12/09 11:26:46;;;;;;;1.92;0.82;;;15.70;97.80;;;;;;7405657;19;19921;-44
2022/12/09 11:29:18;;;;;;;2.08;0.20;;;15.80;97.90;;;;;;7406912;19;20066;-50
2022/12/09 11:31:50;;;;;;;;;;;15.80;97.80;;;;;;7404596;19;20538;-45
2022/12/09 11:34:39;;;;;;;1.83;0.30;;;15.90;97.80;;;;;;7401609;19;20264;-48
2022/12/09 11:37:30;;;;;;;1.35;0.47;;;16.10;97.70;;;;;;7406263;19;19929;-45
2022/12/09 11:40:21;;;;;;;1.75;0.30;;;16.20;97.60;;;;;;7403513;19;19922;-43
2022/12/09 11:43:14;;;;;;;1.58;0.63;;;16.40;97.50;;;;;;7407446;19;19919;-47
2022/12/09 11:46:07;;;;;;;2.25;1.33;;;16.60;97.40;;;;;;7403259;19;19918;-44
2022/12/09 11:48:59;;;;;;;1.58;0.43;;;16.70;97.40;;;;;;7405393;19;20455;-46
2022/12/09 11:52:02;;;;;;;0.98;0.20;;;16.90;97.50;;;;;;7408102;19;19939;-43
2022/12/09 11:54:58;;;;;;;1.60;0.57;;;17.10;97.20;;;;;;7403221;19;19918;-45
2022/12/09 11:57:51;;;;;;;1.45;0.80;;;17.20;97.10;;;;;;7404722;19;19926;-43
2022/12/09 12:00:25;;;;;;;1.20;0.63;;;17.40;97.00;;;;;;7404791;19;19922;-48
2022/12/09 12:03:02;;;;;;;2.00;0.60;;;17.50;96.90;;;;;;7406698;19;19926;-46
2022/12/09 12:05:37;;;;;;;1.40;0.50;;;17.60;96.80;;;;;;7404300;19;19986;-43
2022/12/09 12:08:17;;;;;;;2.03;0.63;;;17.70;96.80;;;;;;7406088;19;19925;-44
2022/12/09 12:10:51;;;;;;;1.10;0.17;;;17.80;96.70;;;;;;7403525;19;20268;-43
2022/12/09 12:13:25;;;;;;;2.28;1.35;;;17.80;96.60;;;;;;7397362;19;19918;-44
2022/12/09 12:16:06;;;;;;;1.38;0.55;;;17.90;96.60;;;;;;7405649;19;19919;-45
2022/12/09 12:18:41;;;;;;;1.20;0.68;;;18.00;96.50;;;;;;7404056;19;19918;-43
2022/12/09 12:21:22;;;;;;;1.30;0.70;;;18.00;96.70;;;;;;7405524;19;19939;-43
2022/12/09 12:24:14;;;;;;;1.35;0.80;;;18.00;96.40;;;;;;7403358;19;19907;-45
2022/12/09 12:26:51;;;;;;;1.48;0.63;;;18.10;96.30;;;;;;7403991;19;19935;-44
2022/12/09 12:29:39;;;;;;;1.20;0.55;;;18.10;96.30;;;;;;7401845;19;19915;-43
2022/12/09 12:32:31;;;;;;;1.48;0.73;;;18.20;96.30;;;;;;7397163;19;19977;-44
2022/12/09 12:35:15;;;;;;;2.53;0.57;;;18.20;96.20;;;;;;7406756;19;20017;-47
2022/12/09 12:37:56;;;;;;;1.30;0.55;;;18.30;96.30;;;;;;7404438;19;19933;-43
2022/12/09 12:40:37;;;;;;;1.25;0.22;;;18.30;96.20;;;;;;7403833;19;19919;-42
2022/12/09 12:48:58;;;;;;;1.60;0.85;;;18.50;96.30;;;;;;7395898;19;19919;-42
2022/12/09 12:51:37;;;;;;;4.32;1.10;;;18.60;96.30;;;;;;7405363;19;19922;-46
2022/12/09 12:54:17;;;;;;;5.90;1.67;;;18.60;96.40;;;;;;7401257;19;19919;-42
2022/12/09 12:56:53;;;;;;;12.73;5.20;;;18.70;96.50;;;;;;7390403;19;19930;-43
2022/12/09 12:59:30;;;;;;;14.27;7.78;;;18.80;96.60;;;;;;7407186;19;19974;-42
2022/12/09 13:02:08;;;;;;;14.75;5.78;;;18.80;96.70;;;;;;7403934;19;19925;-43
2022/12/09 13:04:46;;;;;;;14.77;6.45;;;18.80;96.60;;;;;;7399517;19;19927;-42
2022/12/09 13:07:28;;;;;;;10.90;5.25;;;18.90;96.60;;;;;;7404974;19;19970;-42
2022/12/09 13:10:01;;;;;;;9.85;5.47;;;18.90;96.50;;;;;;7405017;19;19939;-42
2022/12/09 13:15:19;;;;;;;11.77;5.57;;;19.00;96.50;;;;;;7403356;19;19934;-44
2022/12/09 13:17:49;;;;;;;12.60;5.78;;;19.00;96.40;;;;;;7404755;19;19915;-43
2022/12/09 13:20:28;;;;;;;10.57;4.78;;;19.00;96.60;;;;;;7402523;19;20283;-44
2022/12/09 13:23:02;;;;;;;10.38;5.13;;;18.90;96.40;;;;;;7408911;19;19923;-44
2022/12/09 13:25:47;;;;;;;12.10;5.72;;;18.90;96.50;;;;;;7407658;19;20365;-44
2022/12/09 13:28:23;;;;;;;8.57;5.32;;;18.80;96.40;;;;;;7408989;19;19974;-42
2022/12/09 13:30:58;;;;;;;10.32;3.88;;;18.80;96.50;;;;;;7408955;19;20241;-43
2022/12/09 13:33:41;;;;;;;11.07;4.43;;;18.70;96.50;;;;;;7412774;19;19922;-45
2022/12/09 13:36:23;;;;;;;12.15;5.80;;;18.70;96.70;;;;;;7412842;19;19915;-45
2022/12/09 13:38:52;;;;;;;8.35;4.30;;;18.60;96.40;;;;;;7407580;19;19919;-46
2022/12/09 13:44:22;;;;;;;11.82;5.43;;;18.60;96.50;;;;;;7406581;19;19923;-46
2022/12/09 13:46:51;;;;;;;9.23;4.32;;;18.50;96.60;;;;;;7408571;19;19986;-46
2022/12/09 13:49:22;;;;;;;10.30;5.20;;;18.50;96.60;;;;;;7409175;19;19947;-43
2022/12/09 13:51:56;;;;;;;10.90;5.20;;;18.40;96.60;;;;;;7408660;19;19929;-45
2022/12/09 13:54:27;;;;;;;8.77;3.95;;;18.40;96.50;;;;;;7406445;19;20250;-43
2022/12/09 13:57:14;;;;;;;10.35;4.68;;;18.30;96.60;;;;;;7412190;19;19922;-44
2022/12/09 13:59:45;;;;;;;7.60;4.05;;;18.20;96.50;;;;;;7407395;19;19944;-43
2022/12/09 14:02:33;;;;;;;8.95;3.97;;;18.10;96.60;;;;;;7407697;19;19922;-42
2022/12/09 14:05:09;;;;;;;10.23;3.90;;;18.10;96.60;;;;;;7406383;19;19952;-43
2022/12/09 14:07:49;;;;;;;7.97;3.92;;;18.00;96.60;;;;;;7407148;19;19925;-42
2022/12/09 14:10:41;;;;;;;8.32;3.97;;;18.00;96.70;;;;;;7407446;19;19910;-44
2022/12/09 14:13:30;;;;;;;9.50;5.35;;;18.00;96.60;;;;;;7407970;19;19918;-52
2022/12/09 14:16:36;;;;;;;8.60;3.70;;;17.90;96.60;;;;;;7407571;19;19914;-44
2022/12/09 14:19:34;;;;;;;10.63;4.55;;;17.80;96.70;;;;;;7405602;19;19919;-43
2022/12/09 14:23:04;;;;;;;6.95;3.33;;;17.80;96.60;;;;;;7407783;19;19918;-43
2022/12/09 14:25:59;;;;;;;8.55;3.70;;;17.70;96.70;;;;;;7402155;19;19969;-45
2022/12/09 14:28:56;;;;;;;9.10;4.57;;;17.60;96.70;;;;;;7407529;19;19923;-44
2022/12/09 14:31:52;;;;;;;9.50;4.75;;;17.60;96.70;;;;;;7409689;19;19978;-44
2022/12/09 14:34:36;;;;;;;8.50;4.38;;;17.50;97.00;;;;;;7406301;19;19985;-44
2022/12/09 14:37:22;;;;;;;8.57;3.20;;;17.50;96.80;;;;;;7406454;19;20312;-43
2022/12/09 14:40:00;;;;;;;7.32;4.22;;;17.50;96.70;;;;;;7405319;19;19964;-44
2022/12/09 14:42:38;;;;;;;8.13;4.45;;;17.40;96.70;;;;;;7406937;19;19974;-44
2022/12/09 14:45:19;;;;;;;8.43;4.63;;;17.40;96.80;;;;;;7405559;19;19935;-44
2022/12/09 14:47:49;;;;;;;7.95;4.00;;;17.40;96.80;;;;;;7406491;19;19918;-43
2022/12/09 14:50:22;;;;;;;7.95;4.90;;;17.30;96.80;;;;;;7406677;19;19974;-43
2022/12/09 14:52:59;;;;;;;6.95;3.28;;;17.30;96.90;;;;;;7406443;19;19910;-43
2022/12/09 14:55:35;;;;;;;8.90;4.65;;;17.20;96.90;;;;;;7404535;19;19936;-42
2022/12/09 14:58:04;;;;;;;8.18;4.70;;;17.10;96.90;;;;;;7406376;19;19911;-43
2022/12/09 15:00:36;;;;;;;10.32;4.18;;;17.00;97.00;;;;;;7404907;19;19918;-42
2022/12/09 15:03:07;;;;;;;10.35;4.60;;;17.00;97.00;;;;;;7410172;19;19918;-42
2022/12/09 15:05:37;;;;;;;7.30;3.42;;;16.90;97.10;;;;;;7404736;19;19978;-43
2022/12/09 15:08:06;;;;;;;6.18;3.60;;;16.90;97.10;;;;;;7405643;19;19926;-43
2022/12/09 15:10:40;;;;;;;7.57;4.00;;;16.80;97.10;;;;;;7406257;19;19918;-43
2022/12/09 15:13:11;;;;;;;6.18;3.80;;;16.80;97.10;;;;;;7405611;19;20365;-42
2022/12/09 15:15:41;;;;;;;6.80;4.18;;;16.80;97.20;;;;;;7406605;19;19919;-43
2022/12/09 15:18:20;;;;;;;9.52;3.33;;;16.70;97.20;;;;;;7405534;19;19918;-42
2022/12/09 15:20:54;;;;;;;7.88;3.50;;;16.70;97.20;;;;;;7405635;19;19918;-43
2022/12/09 15:23:26;;;;;;;7.55;3.78;;;16.70;97.20;;;;;;7405886;19;19922;-42
2022/12/09 15:26:00;;;;;;;6.55;3.00;;;16.60;97.20;;;;;;7404292;19;19915;-42
2022/12/09 15:28:31;;;;;;;6.97;4.55;;;16.60;97.50;;;;;;7405897;19;19910;-43
2022/12/09 15:31:02;;;;;;;7.03;3.97;;;16.60;97.30;;;;;;7405534;19;19915;-42
2022/12/09 15:33:39;;;;;;;5.63;3.90;;;16.50;97.50;;;;;;7406167;19;19919;-43
2022/12/09 15:36:12;;;;;;;7.05;3.20;;;16.50;97.50;;;;;;7405091;19;19967;-43
2022/12/09 15:38:45;;;;;;;7.80;3.67;;;16.50;97.40;;;;;;7404736;19;19933;-43
2022/12/09 15:44:05;;;;;;;6.45;3.53;;;16.40;97.40;;;;;;7405108;19;19918;-42